createdAt,value
2023-05-12T00:01:50.450Z,14.96
2023-05-12T00:04:20.039Z,14.99
2023-05-12T00:06:48.470Z,15.04
2023-05-12T00:09:16.532Z,14.99
2023-05-12T00:11:44.537Z,14.99
2023-05-12T00:14:12.566Z,14.90
2023-05-12T00:16:40.778Z,14.89
2023-05-12T00:19:09.001Z,14.89
2023-05-12T00:21:38.570Z,14.79
2023-05-12T00:24:07.436Z,14.87
2023-05-12T00:26:35.457Z,14.76
2023-05-12T00:29:03.520Z,14.73
2023-05-12T00:31:31.737Z,14.64
2023-05-12T00:33:59.660Z,14.62
2023-05-12T00:36:28.038Z,14.59
2023-05-12T00:38:59.487Z,14.61
2023-05-12T00:41:27.536Z,14.61
2023-05-12T00:43:55.407Z,14.57
2023-05-12T00:46:23.453Z,14.54
2023-05-12T00:48:51.781Z,14.54
2023-05-12T00:51:20.152Z,14.61
2023-05-12T00:53:50.590Z,14.59
2023-05-12T00:56:20.537Z,14.59
2023-05-12T00:58:49.062Z,14.61
2023-05-12T01:01:17.233Z,14.59
2023-05-12T01:03:45.627Z,14.62
2023-05-12T01:06:17.902Z,14.55
2023-05-12T01:08:47.052Z,14.49
2023-05-12T01:11:15.064Z,14.56
2023-05-12T01:13:44.345Z,14.57
2023-05-12T01:16:16.120Z,14.60
2023-05-12T01:18:49.981Z,14.64
2023-05-12T01:21:19.197Z,14.64
2023-05-12T01:23:52.863Z,14.70
2023-05-12T01:26:22.674Z,14.71
2023-05-12T01:28:51.599Z,14.69
2023-05-12T01:31:21.242Z,14.68
2023-05-12T01:33:49.378Z,14.68
2023-05-12T01:36:17.409Z,14.75
2023-05-12T01:38:45.423Z,14.75
2023-05-12T01:41:13.473Z,14.85
2023-05-12T01:43:42.930Z,14.95
2023-05-12T01:46:11.312Z,14.95
2023-05-12T01:48:39.439Z,14.97
2023-05-12T01:51:09.800Z,14.94
2023-05-12T01:53:37.993Z,14.83
2023-05-12T01:56:06.292Z,14.84
2023-05-12T01:58:34.396Z,14.83
2023-05-12T02:01:03.756Z,14.82
2023-05-12T02:03:31.955Z,14.83
2023-05-12T02:06:00.013Z,14.83
2023-05-12T02:08:27.914Z,14.91
2023-05-12T02:11:06.316Z,14.97
2023-05-12T02:13:34.379Z,14.87
2023-05-12T02:16:04.008Z,14.92
2023-05-12T02:18:32.050Z,14.98
2023-05-12T02:21:00.126Z,15.04
2023-05-12T02:23:28.033Z,15.07
2023-05-12T02:25:55.844Z,15.07
2023-05-12T02:28:23.963Z,15.11
2023-05-12T02:30:53.188Z,15.13
2023-05-12T02:33:23.109Z,15.17
2023-05-12T02:35:51.178Z,15.18
2023-05-12T02:38:19.447Z,15.16
2023-05-12T02:40:48.000Z,15.11
2023-05-12T02:43:15.885Z,15.14
2023-05-12T02:45:44.093Z,15.15
2023-05-12T02:48:12.321Z,15.15
2023-05-12T02:50:41.896Z,15.17
2023-05-12T02:53:09.904Z,15.15
2023-05-12T02:55:37.830Z,15.13
2023-05-12T02:58:08.206Z,15.09
2023-05-12T03:00:39.456Z,15.09
2023-05-12T03:03:07.779Z,15.12
2023-05-12T03:05:35.790Z,15.03
2023-05-12T03:08:06.825Z,15.05
2023-05-12T03:10:34.807Z,15.08
2023-05-12T03:13:02.735Z,15.07
2023-05-12T03:15:30.902Z,15.02
2023-05-12T03:17:59.206Z,14.97
2023-05-12T03:20:28.866Z,14.96
2023-05-12T03:22:56.685Z,14.98
2023-05-12T03:25:25.998Z,14.97
2023-05-12T03:27:53.782Z,14.91
2023-05-12T03:30:21.963Z,14.88
2023-05-12T03:32:49.931Z,14.82
2023-05-12T03:35:18.044Z,14.85
2023-05-12T03:37:46.267Z,14.85
2023-05-12T03:40:20.297Z,14.88
2023-05-12T03:42:49.938Z,14.92
2023-05-12T03:45:18.002Z,14.90
2023-05-12T03:47:45.968Z,14.88
2023-05-12T03:50:14.073Z,14.87
2023-05-12T03:52:42.215Z,14.84
2023-05-12T03:55:10.546Z,14.86
2023-05-12T03:57:38.687Z,14.87
2023-05-12T04:00:09.393Z,14.89
2023-05-12T04:02:37.303Z,14.84
2023-05-12T04:05:08.324Z,14.84
2023-05-12T04:07:44.365Z,14.86
2023-05-12T04:10:12.436Z,14.83
2023-05-12T04:12:40.472Z,14.80
2023-05-12T04:15:10.899Z,14.80
2023-05-12T04:17:39.179Z,14.79
2023-05-12T04:20:10.931Z,14.76
2023-05-12T04:22:38.918Z,14.76
2023-05-12T04:25:07.515Z,14.80
2023-05-12T04:27:37.337Z,14.81
2023-05-12T04:30:06.384Z,14.79
2023-05-12T04:32:36.654Z,14.82
2023-05-12T04:35:05.304Z,14.74
2023-05-12T04:37:33.477Z,14.74
2023-05-12T04:40:01.404Z,14.73
2023-05-12T04:42:29.390Z,14.79
2023-05-12T04:44:57.179Z,14.82
2023-05-12T04:47:25.608Z,14.87
2023-05-12T04:49:54.917Z,14.82
2023-05-12T04:52:24.784Z,14.82
2023-05-12T04:54:53.494Z,14.83
2023-05-12T04:57:21.353Z,14.85
2023-05-12T04:59:49.240Z,14.85
2023-05-12T05:02:21.197Z,14.83
2023-05-12T05:04:49.871Z,14.86
2023-05-12T05:07:19.660Z,14.92
2023-05-12T05:09:48.067Z,14.92
2023-05-12T05:12:17.717Z,14.93
2023-05-12T05:14:46.383Z,14.96
2023-05-12T05:17:15.014Z,14.99
2023-05-12T05:19:54.823Z,14.99
2023-05-12T05:22:28.561Z,15.04
2023-05-12T05:24:56.772Z,15.04
2023-05-12T05:27:24.651Z,15.06
2023-05-12T05:29:52.493Z,15.06
2023-05-12T05:32:20.391Z,15.03
2023-05-12T05:34:48.765Z,15.06
2023-05-12T05:37:19.880Z,15.07
2023-05-12T05:40:02.363Z,15.07
2023-05-12T05:43:20.639Z,15.10
2023-05-12T05:46:06.263Z,15.14
2023-05-12T05:48:46.313Z,15.18
2023-05-12T05:51:50.737Z,15.25
2023-05-12T05:55:38.724Z,15.29
2023-05-12T05:57:48.439Z,15.33
2023-05-12T06:00:31.389Z,15.33
2023-05-12T06:03:10.338Z,15.36
2023-05-12T06:05:38.972Z,15.48
2023-05-12T06:08:09.410Z,15.55
2023-05-12T06:10:38.378Z,15.68
2023-05-12T06:13:07.952Z,15.83
2023-05-12T06:18:33.921Z,16.03
2023-05-12T06:21:04.528Z,16.05
2023-05-12T06:23:32.732Z,16.08
2023-05-12T06:26:02.149Z,16.17
2023-05-12T06:28:31.693Z,16.21
2023-05-12T06:30:59.962Z,16.27
2023-05-12T06:33:33.734Z,16.27
2023-05-12T06:36:03.840Z,16.32
2023-05-12T06:38:31.896Z,16.29
2023-05-12T06:40:59.886Z,16.34
2023-05-12T06:43:27.839Z,16.47
2023-05-12T06:45:57.881Z,16.59
2023-05-12T06:48:25.944Z,16.68
2023-05-12T06:50:54.090Z,16.71
2023-05-12T06:53:25.516Z,16.85
2023-05-12T06:55:55.234Z,16.94
2023-05-12T06:58:29.502Z,16.90
2023-05-12T07:00:59.347Z,16.88
2023-05-12T07:03:36.811Z,16.87
2023-05-12T07:06:09.200Z,16.92
2023-05-12T07:08:39.373Z,16.92
2023-05-12T07:11:07.430Z,16.83
2023-05-12T07:13:35.713Z,16.75
2023-05-12T07:16:05.624Z,16.74
2023-05-12T07:18:33.604Z,16.75
2023-05-12T07:21:01.586Z,16.71
2023-05-12T07:23:29.688Z,16.73
2023-05-12T07:25:57.561Z,16.77
2023-05-12T07:28:25.656Z,16.76
2023-05-12T07:30:53.614Z,16.78
2023-05-12T07:33:23.065Z,16.63
2023-05-12T07:35:51.059Z,16.57
2023-05-12T07:38:19.069Z,16.56
2023-05-12T07:40:47.341Z,16.58
2023-05-12T07:43:15.402Z,16.52
2023-05-12T07:45:43.527Z,16.38
2023-05-12T07:48:12.015Z,16.38
2023-05-12T07:50:41.504Z,16.31
2023-05-12T07:53:09.565Z,16.26
2023-05-12T07:55:40.209Z,16.27
2023-05-12T07:58:08.305Z,16.24
2023-05-12T08:00:38.489Z,16.25
2023-05-12T08:03:19.202Z,16.27
2023-05-12T08:05:48.986Z,16.32
2023-05-12T08:08:19.539Z,16.35
2023-05-12T08:10:47.552Z,16.37
2023-05-12T08:13:15.844Z,16.40
2023-05-12T08:15:50.073Z,16.46
2023-05-12T08:18:20.064Z,16.47
2023-05-12T08:20:50.531Z,16.43
2023-05-12T08:23:33.895Z,16.47
2023-05-12T08:26:10.498Z,16.51
2023-05-12T08:28:41.498Z,16.51
2023-05-12T08:31:11.732Z,16.53
2023-05-12T08:33:40.860Z,16.58
2023-05-12T08:36:10.537Z,16.64
2023-05-12T08:38:38.778Z,16.68
2023-05-12T08:41:17.984Z,16.74
2023-05-12T08:43:47.703Z,16.82
2023-05-12T08:46:17.551Z,16.83
2023-05-12T08:48:47.955Z,16.90
2023-05-12T08:51:20.940Z,17.02
2023-05-12T08:53:52.545Z,17.09
2023-05-12T08:58:58.931Z,16.99
2023-05-12T09:01:29.836Z,17.00
2023-05-12T09:03:57.774Z,17.07
2023-05-12T09:06:27.474Z,17.12
2023-05-12T09:08:55.777Z,17.21
2023-05-12T09:11:23.902Z,17.27
2023-05-12T09:14:00.234Z,17.35
2023-05-12T09:16:31.394Z,17.51
2023-05-12T09:19:00.870Z,17.62
2023-05-12T09:21:30.294Z,17.76
2023-05-12T09:24:00.063Z,17.83
2023-05-12T09:26:29.831Z,17.97
2023-05-12T09:29:06.635Z,18.08
2023-05-12T09:31:35.030Z,18.20
2023-05-12T09:34:08.520Z,18.35
2023-05-12T09:36:38.438Z,18.42
2023-05-12T09:39:11.119Z,18.35
2023-05-12T09:41:39.729Z,18.38
2023-05-12T09:44:08.882Z,18.36
2023-05-12T09:46:37.292Z,18.49
2023-05-12T09:49:05.295Z,18.63
2023-05-12T09:51:33.326Z,18.77
2023-05-12T09:54:05.710Z,18.92
2023-05-12T09:56:39.754Z,18.98
2023-05-12T09:59:07.836Z,19.04
2023-05-12T10:01:36.836Z,19.17
2023-05-12T10:04:09.121Z,19.25
2023-05-12T10:06:39.224Z,19.29
2023-05-12T10:09:18.291Z,19.38
2023-05-12T10:11:48.023Z,19.40
2023-05-12T10:14:18.028Z,19.36
2023-05-12T10:16:46.963Z,19.38
2023-05-12T10:19:15.388Z,19.44
2023-05-12T10:21:46.156Z,19.51
2023-05-12T10:24:16.115Z,19.67
2023-05-12T10:26:45.071Z,19.90
2023-05-12T10:29:14.543Z,20.01
2023-05-12T10:31:45.716Z,20.04
2023-05-12T10:34:18.817Z,20.14
2023-05-12T10:36:51.018Z,20.15
2023-05-12T10:39:20.971Z,20.21
2023-05-12T10:41:50.524Z,20.35
2023-05-12T10:44:28.298Z,20.42
2023-05-12T10:46:59.134Z,20.53
2023-05-12T10:49:34.786Z,20.68
2023-05-12T10:52:03.120Z,20.78
2023-05-12T10:54:40.708Z,20.81
2023-05-12T10:57:17.976Z,20.76
2023-05-12T10:59:51.984Z,20.85
2023-05-12T11:02:27.433Z,20.89
2023-05-12T11:04:58.261Z,20.97
2023-05-12T11:07:30.447Z,21.07
2023-05-12T11:10:02.328Z,21.09
2023-05-12T11:12:33.306Z,21.17
2023-05-12T11:15:04.884Z,21.35
2023-05-12T11:17:33.392Z,21.52
2023-05-12T11:20:03.276Z,21.57
2023-05-12T11:22:31.439Z,21.67
2023-05-12T11:25:12.472Z,21.76
2023-05-12T11:27:44.922Z,21.58
2023-05-12T11:30:13.787Z,21.56
2023-05-12T11:32:42.773Z,21.56
2023-05-12T11:35:16.570Z,21.43
2023-05-12T11:37:46.284Z,21.37
2023-05-12T11:40:20.619Z,21.46
2023-05-12T11:42:52.815Z,21.54
2023-05-12T11:45:26.053Z,21.47
2023-05-12T11:47:55.515Z,21.49
2023-05-12T11:50:25.871Z,21.51
2023-05-12T11:52:54.742Z,21.27
2023-05-12T11:55:27.341Z,21.23
2023-05-12T11:58:00.326Z,21.35
2023-05-12T12:00:33.228Z,21.42
2023-05-12T12:03:09.106Z,21.53
2023-05-12T12:05:40.787Z,21.55
2023-05-12T12:13:18.223Z,21.15
2023-05-12T12:25:56.343Z,21.00
2023-05-12T12:53:51.013Z,21.65
2023-05-12T12:56:19.696Z,21.48
2023-05-12T12:58:47.832Z,21.53
2023-05-12T13:01:18.095Z,21.65
2023-05-12T13:03:46.261Z,21.62
2023-05-12T13:06:14.325Z,21.68
2023-05-12T13:08:44.022Z,21.76
2023-05-12T13:11:12.193Z,21.85
2023-05-12T13:13:40.168Z,21.91
2023-05-12T13:16:08.802Z,22.03
2023-05-12T13:18:50.704Z,22.07
2023-05-12T13:21:19.353Z,21.81
2023-05-12T13:23:48.726Z,21.87
2023-05-12T13:26:16.866Z,21.85
2023-05-12T13:28:44.805Z,21.97
2023-05-12T13:31:13.300Z,21.82
2023-05-12T13:33:41.378Z,21.95
2023-05-12T13:36:09.913Z,21.93
2023-05-12T13:38:41.518Z,22.02
2023-05-12T13:41:16.709Z,22.16
2023-05-12T13:43:46.253Z,22.27
2023-05-12T13:46:14.809Z,22.39
2023-05-12T13:48:43.528Z,22.26
2023-05-12T13:51:12.775Z,22.41
2023-05-12T13:53:47.996Z,22.23
2023-05-12T13:56:19.117Z,22.04
2023-05-12T13:58:47.929Z,22.13
2023-05-12T14:01:19.664Z,22.21
2023-05-12T14:03:50.833Z,22.13
2023-05-12T14:06:26.833Z,22.13
2023-05-12T14:09:15.578Z,22.17
2023-05-12T14:11:48.441Z,22.13
2023-05-12T14:14:16.532Z,22.06
2023-05-12T14:16:44.594Z,22.04
2023-05-12T14:19:13.642Z,22.06
2023-05-12T14:21:42.387Z,22.17
2023-05-12T14:24:10.700Z,22.23
2023-05-12T14:26:41.158Z,22.23
2023-05-12T14:29:10.586Z,22.43
2023-05-12T14:31:38.808Z,22.76
2023-05-12T14:34:09.238Z,22.93
2023-05-12T14:36:38.046Z,23.09
2023-05-12T14:39:08.877Z,23.30
2023-05-12T14:41:37.194Z,23.39
2023-05-12T14:44:05.812Z,23.14
2023-05-12T14:46:36.861Z,22.51
2023-05-12T14:49:10.539Z,21.79
2023-05-12T14:51:38.664Z,21.55
2023-05-12T14:54:21.885Z,21.12
2023-05-12T14:56:52.798Z,20.21
2023-05-12T14:59:20.937Z,19.56
2023-05-12T15:01:50.398Z,18.85
2023-05-12T15:04:18.319Z,18.47
2023-05-12T15:06:46.714Z,18.10
2023-05-12T15:09:14.631Z,17.90
2023-05-12T15:11:44.568Z,17.83
2023-05-12T15:14:13.841Z,17.91
2023-05-12T15:16:41.772Z,17.71
2023-05-12T15:19:11.477Z,17.82
2023-05-12T15:21:42.458Z,17.88
2023-05-12T15:24:10.754Z,18.01
2023-05-12T15:26:40.276Z,18.30
2023-05-12T15:29:08.450Z,18.48
2023-05-12T15:31:38.054Z,18.62
2023-05-12T15:34:06.354Z,18.66
2023-05-12T15:36:36.048Z,18.65
2023-05-12T15:39:05.842Z,18.65
2023-05-12T15:41:33.939Z,18.75
2023-05-12T15:44:01.981Z,18.82
2023-05-12T15:46:33.009Z,18.87
2023-05-12T15:49:01.011Z,18.73
2023-05-12T15:51:29.918Z,18.81
2023-05-12T15:53:59.160Z,18.95
2023-05-12T15:56:27.395Z,19.11
2023-05-12T15:58:56.907Z,19.17
2023-05-12T16:01:25.029Z,19.15
2023-05-12T16:03:54.049Z,19.11
2023-05-12T16:06:22.102Z,19.03
2023-05-12T16:08:50.719Z,18.91
2023-05-12T16:11:19.925Z,18.55
2023-05-12T16:13:47.709Z,18.32
2023-05-12T16:16:15.874Z,18.25
2023-05-12T16:18:43.923Z,18.12
2023-05-12T16:21:12.718Z,18.14
2023-05-12T16:23:41.021Z,18.16
2023-05-12T16:26:09.050Z,18.14
2023-05-12T16:28:38.476Z,18.09
2023-05-12T16:31:06.442Z,18.08
2023-05-12T16:33:34.243Z,18.09
2023-05-12T16:36:02.028Z,18.12
2023-05-12T16:38:32.368Z,18.15
2023-05-12T16:41:01.570Z,18.13
2023-05-12T16:43:29.362Z,18.09
2023-05-12T16:46:02.965Z,18.16
2023-05-12T16:48:34.347Z,18.22
2023-05-12T16:51:03.477Z,18.21
2023-05-12T16:53:31.468Z,18.12
2023-05-12T16:55:59.752Z,18.12
2023-05-12T16:58:31.233Z,18.18
2023-05-12T17:00:59.320Z,18.22
2023-05-12T17:03:29.453Z,18.22
2023-05-12T17:05:57.467Z,18.16
2023-05-12T17:08:25.699Z,18.21
2023-05-12T17:10:53.505Z,18.24
2023-05-12T17:13:21.482Z,18.21
2023-05-12T17:15:49.222Z,18.18
2023-05-12T17:18:17.006Z,18.20
2023-05-12T17:20:46.265Z,18.20
2023-05-12T17:23:13.986Z,18.17
2023-05-12T17:25:41.695Z,18.23
2023-05-12T17:28:10.775Z,18.19
2023-05-12T17:30:38.631Z,18.20
2023-05-12T17:33:07.502Z,18.22
2023-05-12T17:35:35.587Z,18.18
2023-05-12T17:38:05.173Z,18.19
2023-05-12T17:40:33.061Z,18.08
2023-05-12T17:43:00.930Z,18.03
2023-05-12T17:45:28.790Z,18.01
2023-05-12T17:47:56.895Z,18.03
2023-05-12T17:50:24.814Z,18.01
2023-05-12T17:52:54.901Z,17.87
2023-05-12T17:55:24.479Z,17.81
2023-05-12T17:57:52.788Z,17.84
2023-05-12T18:00:21.175Z,17.85
2023-05-12T18:02:49.118Z,17.82
2023-05-12T18:05:17.239Z,17.82
2023-05-12T18:07:45.085Z,17.81
2023-05-12T18:10:13.000Z,17.73
2023-05-12T18:12:42.282Z,17.72
2023-05-12T18:15:10.704Z,17.66
2023-05-12T18:17:38.621Z,17.58
2023-05-12T18:20:07.976Z,17.54
2023-05-12T18:22:37.039Z,17.51
2023-05-12T18:25:05.471Z,17.41
2023-05-12T18:27:33.247Z,17.34
2023-05-12T18:30:02.634Z,17.29
2023-05-12T18:32:31.124Z,17.28
2023-05-12T18:34:59.534Z,17.26
2023-05-12T18:37:27.409Z,17.24
2023-05-12T18:39:55.502Z,17.20
2023-05-12T18:42:34.476Z,17.16
2023-05-12T18:45:03.960Z,17.02
2023-05-12T18:47:31.827Z,17.02
2023-05-12T18:49:59.701Z,16.96
2023-05-12T18:52:27.491Z,17.00
2023-05-12T18:54:55.328Z,16.97
2023-05-12T18:57:23.173Z,16.93
2023-05-12T18:59:51.148Z,16.93
2023-05-12T19:02:20.757Z,16.88
2023-05-12T19:04:48.854Z,16.82
2023-05-12T19:07:17.018Z,16.82
2023-05-12T19:09:45.269Z,16.76
2023-05-12T19:12:13.080Z,16.74
2023-05-12T19:14:42.999Z,16.72
2023-05-12T19:17:11.032Z,16.72
2023-05-12T19:19:40.344Z,16.70
2023-05-12T19:22:08.154Z,16.68
2023-05-12T19:24:38.018Z,16.67
2023-05-12T19:27:06.142Z,16.64
2023-05-12T19:29:34.030Z,16.61
2023-05-12T19:32:02.020Z,16.60
2023-05-12T19:34:31.483Z,16.58
2023-05-12T19:37:01.198Z,16.54
2023-05-12T19:39:29.162Z,16.49
2023-05-12T19:41:56.971Z,16.48
2023-05-12T19:44:24.748Z,16.47
2023-05-12T19:46:52.674Z,16.44
2023-05-12T19:49:20.563Z,16.41
2023-05-12T19:51:48.690Z,16.37
2023-05-12T19:54:17.956Z,16.37
2023-05-12T19:56:45.803Z,16.34
2023-05-12T19:59:18.475Z,16.32
2023-05-12T20:01:46.726Z,16.29
2023-05-12T20:04:14.728Z,16.27
2023-05-12T20:06:43.163Z,16.22
2023-05-12T20:09:11.184Z,16.15
2023-05-12T20:11:40.586Z,16.12
2023-05-12T20:14:08.389Z,16.09
2023-05-12T20:16:38.232Z,16.09
2023-05-12T20:19:06.261Z,16.10
2023-05-12T20:21:34.551Z,16.07
2023-05-12T20:24:06.080Z,16.01
2023-05-12T20:26:34.123Z,15.96
2023-05-12T20:29:05.421Z,15.96
2023-05-12T20:31:33.524Z,15.96
2023-05-12T20:34:01.297Z,15.95
2023-05-12T20:36:29.132Z,15.91
2023-05-12T20:38:56.932Z,15.88
2023-05-12T20:41:24.649Z,15.86
2023-05-12T20:43:52.461Z,15.85
2023-05-12T20:46:21.682Z,15.83
2023-05-12T20:48:49.472Z,15.80
2023-05-12T20:51:17.220Z,15.76
2023-05-12T20:53:45.026Z,15.73
2023-05-12T20:56:13.127Z,15.65
2023-05-12T20:58:40.968Z,15.63
2023-05-12T21:01:08.752Z,15.61
2023-05-12T21:03:38.014Z,15.56
2023-05-12T21:06:06.588Z,15.51
2023-05-12T21:08:34.428Z,15.47
2023-05-12T21:11:02.746Z,15.41
2023-05-12T21:13:30.570Z,15.39
2023-05-12T21:16:09.732Z,15.34
2023-05-12T21:18:52.579Z,15.28
2023-05-12T21:25:07.375Z,15.22
2023-05-12T21:27:35.769Z,15.17
2023-05-12T21:30:03.496Z,15.13
2023-05-12T21:32:31.233Z,15.10
2023-05-12T21:35:00.337Z,15.05
2023-05-12T21:37:28.048Z,15.08
2023-05-12T21:39:55.862Z,15.05
2023-05-12T21:42:23.687Z,15.09
2023-05-12T21:44:51.568Z,15.07
2023-05-12T21:47:19.648Z,15.07
2023-05-12T21:49:47.588Z,14.99
2023-05-12T21:52:16.814Z,14.95
2023-05-12T21:54:44.545Z,14.93
2023-05-12T21:57:12.402Z,14.94
2023-05-12T21:59:40.335Z,14.88
2023-05-12T22:02:09.653Z,14.82
2023-05-12T22:04:37.547Z,14.82
2023-05-12T22:07:05.904Z,14.86
2023-05-12T22:09:36.668Z,14.88
2023-05-12T22:12:04.760Z,14.86
2023-05-12T22:14:32.515Z,14.84
2023-05-12T22:17:00.756Z,14.77
2023-05-12T22:19:28.843Z,14.80
2023-05-12T22:21:57.127Z,14.77
2023-05-12T22:24:24.874Z,14.73
2023-05-12T22:26:54.092Z,14.67
2023-05-12T22:29:21.933Z,14.65
2023-05-12T22:31:49.755Z,14.65
2023-05-12T22:34:17.576Z,14.66
2023-05-12T22:36:46.139Z,14.60
2023-05-12T22:39:14.656Z,14.57
2023-05-12T22:41:42.632Z,14.57
2023-05-12T22:44:11.898Z,14.56
2023-05-12T22:46:39.693Z,14.58
2023-05-12T22:49:07.502Z,14.58
2023-05-12T22:51:35.514Z,14.58
2023-05-12T22:54:03.308Z,14.51
2023-05-12T22:56:31.078Z,14.47
2023-05-12T22:58:58.900Z,14.42
2023-05-12T23:01:28.108Z,14.41
2023-05-12T23:03:55.936Z,14.33
2023-05-12T23:06:37.103Z,14.30
2023-05-12T23:09:05.097Z,14.28
2023-05-12T23:11:32.909Z,14.24
2023-05-12T23:14:00.704Z,14.22
2023-05-12T23:16:29.888Z,14.20
2023-05-12T23:18:57.717Z,14.19
2023-05-12T23:21:25.526Z,14.18
2023-05-12T23:23:53.292Z,14.15
2023-05-12T23:26:21.305Z,14.12
2023-05-12T23:28:49.058Z,14.08
2023-05-12T23:31:16.998Z,13.98
2023-05-12T23:33:46.269Z,13.94
2023-05-12T23:36:14.553Z,13.89
2023-05-12T23:38:42.412Z,13.87
2023-05-12T23:41:10.184Z,13.79
2023-05-12T23:43:39.834Z,13.78
2023-05-12T23:46:07.672Z,13.76
2023-05-12T23:48:37.309Z,13.70
2023-05-12T23:51:06.586Z,13.63
2023-05-12T23:53:34.394Z,13.62
2023-05-12T23:56:02.830Z,13.62
2023-05-12T23:58:30.545Z,13.61
